createdAt,value
2019-03-19T00:00:33.455Z,0.00
2019-03-19T00:01:33.464Z,0.00
2019-03-19T00:02:33.433Z,0.00
2019-03-19T00:03:33.426Z,0.00
2019-03-19T00:04:33.420Z,0.00
2019-03-19T00:05:33.444Z,0.00
2019-03-19T00:06:33.430Z,0.00
2019-03-19T00:07:33.379Z,0.00
2019-03-19T00:08:33.375Z,0.00
2019-03-19T00:09:33.357Z,0.00
2019-03-19T00:10:33.353Z,0.00
2019-03-19T00:11:33.335Z,0.00
2019-03-19T00:12:33.356Z,0.00
2019-03-19T00:13:33.314Z,0.00
2019-03-19T00:14:33.304Z,0.00
2019-03-19T00:15:33.288Z,0.00
2019-03-19T00:16:33.283Z,0.00
2019-03-19T00:17:33.309Z,0.00
2019-03-19T00:18:33.262Z,0.00
2019-03-19T00:19:33.262Z,0.00
2019-03-19T00:20:33.240Z,0.00
2019-03-19T00:21:33.239Z,0.00
2019-03-19T00:22:33.245Z,0.00
2019-03-19T00:23:33.201Z,0.00
2019-03-19T00:24:33.191Z,0.00
2019-03-19T00:25:33.192Z,0.00
2019-03-19T00:26:33.177Z,0.00
2019-03-19T00:27:33.193Z,0.00
2019-03-19T00:28:33.167Z,0.00
2019-03-19T00:29:33.141Z,0.00
2019-03-19T00:30:33.133Z,0.00
2019-03-19T00:31:33.117Z,0.00
2019-03-19T00:32:33.139Z,0.00
2019-03-19T00:33:33.095Z,0.00
2019-03-19T00:34:33.103Z,0.00
2019-03-19T00:35:33.071Z,0.00
2019-03-19T00:36:33.069Z,0.00
2019-03-19T00:37:33.069Z,0.00
2019-03-19T00:38:33.040Z,0.00
2019-03-19T00:39:33.039Z,0.00
2019-03-19T00:40:33.015Z,0.00
2019-03-19T00:41:33.008Z,0.00
2019-03-19T00:42:33.017Z,0.00
2019-03-19T00:43:32.995Z,0.00
2019-03-19T00:44:32.981Z,0.00
2019-03-19T00:45:32.981Z,0.00
2019-03-19T00:46:32.950Z,0.00
2019-03-19T00:47:33.046Z,0.00
2019-03-19T00:48:32.931Z,0.00
2019-03-19T00:49:32.940Z,0.00
2019-03-19T00:50:32.915Z,0.00
2019-03-19T00:51:32.900Z,0.00
2019-03-19T00:52:32.888Z,0.00
2019-03-19T00:53:32.901Z,0.00
2019-03-19T00:54:32.868Z,0.00
2019-03-19T00:55:40.659Z,0.00
2019-03-19T00:56:33.847Z,0.00
2019-03-19T00:57:32.831Z,0.00
2019-03-19T00:58:32.857Z,0.00
2019-03-19T00:59:32.812Z,0.00
2019-03-19T01:00:32.813Z,0.00
2019-03-19T01:01:32.800Z,0.00
2019-03-19T01:02:32.791Z,0.00
2019-03-19T01:03:32.789Z,0.00
2019-03-19T01:04:32.758Z,0.00
2019-03-19T01:05:32.748Z,0.00
2019-03-19T01:06:32.737Z,0.00
2019-03-19T01:07:32.727Z,0.00
2019-03-19T01:08:32.740Z,0.00
2019-03-19T01:09:32.735Z,0.00
2019-03-19T01:10:32.690Z,0.00
2019-03-19T01:11:32.679Z,0.00
2019-03-19T01:12:32.676Z,0.00
2019-03-19T01:13:32.691Z,0.00
2019-03-19T01:14:32.649Z,0.00
2019-03-19T01:15:32.637Z,0.00
2019-03-19T01:16:32.625Z,0.00
2019-03-19T01:17:32.612Z,0.00
2019-03-19T01:18:32.631Z,0.00
2019-03-19T01:19:32.601Z,0.00
2019-03-19T01:20:32.597Z,0.00
2019-03-19T01:21:32.585Z,0.00
2019-03-19T01:22:34.989Z,0.00
2019-03-19T01:23:32.569Z,0.00
2019-03-19T01:24:32.544Z,0.00
2019-03-19T01:25:32.528Z,0.00
2019-03-19T01:26:32.514Z,0.00
2019-03-19T01:27:32.586Z,0.00
2019-03-19T01:28:32.541Z,0.00
2019-03-19T01:29:32.494Z,0.00
2019-03-19T01:30:32.472Z,0.00
2019-03-19T01:31:32.463Z,0.00
2019-03-19T01:32:32.451Z,0.00
2019-03-19T01:33:32.456Z,0.00
2019-03-19T01:34:32.435Z,0.00
2019-03-19T01:35:32.454Z,0.00
2019-03-19T01:36:32.410Z,0.00
2019-03-19T01:37:32.431Z,0.00
2019-03-19T01:38:32.400Z,0.00
2019-03-19T01:39:32.695Z,0.00
2019-03-19T01:40:32.369Z,0.00
2019-03-19T01:41:32.364Z,0.00
2019-03-19T01:42:32.364Z,0.00
2019-03-19T01:43:32.380Z,0.00
2019-03-19T01:44:32.324Z,0.00
2019-03-19T01:45:32.318Z,0.00
2019-03-19T01:46:32.304Z,0.00
2019-03-19T01:47:32.299Z,0.00
2019-03-19T01:48:32.294Z,0.00
2019-03-19T01:49:32.270Z,0.00
2019-03-19T01:50:32.258Z,0.00
2019-03-19T01:51:32.254Z,0.00
2019-03-19T01:52:32.234Z,0.00
2019-03-19T01:53:32.240Z,0.00
2019-03-19T01:54:32.221Z,0.00
2019-03-19T01:55:32.215Z,0.00
2019-03-19T01:56:32.187Z,0.00
2019-03-19T01:57:32.194Z,0.00
2019-03-19T01:58:32.188Z,0.00
2019-03-19T01:59:32.166Z,0.00
2019-03-19T02:00:32.152Z,0.00
2019-03-19T02:01:32.131Z,0.00
2019-03-19T02:02:32.126Z,0.00
2019-03-19T02:03:32.131Z,0.00
2019-03-19T02:04:32.107Z,0.00
2019-03-19T02:05:32.091Z,0.00
2019-03-19T02:06:32.083Z,0.00
2019-03-19T02:07:32.077Z,0.00
2019-03-19T02:08:32.134Z,0.00
2019-03-19T02:09:32.211Z,0.00
2019-03-19T02:10:32.036Z,0.00
2019-03-19T02:11:32.053Z,0.00
2019-03-19T02:12:32.017Z,0.00
2019-03-19T02:13:32.028Z,0.00
2019-03-19T02:14:31.995Z,0.00
2019-03-19T02:15:31.978Z,0.00
2019-03-19T02:16:31.974Z,0.00
2019-03-19T02:17:31.955Z,0.00
2019-03-19T02:18:31.966Z,0.00
2019-03-19T02:19:31.945Z,0.00
2019-03-19T02:20:31.928Z,0.00
2019-03-19T02:21:31.929Z,0.00
2019-03-19T02:22:31.914Z,0.00
2019-03-19T02:23:31.917Z,0.00
2019-03-19T02:24:31.884Z,0.00
2019-03-19T02:25:31.887Z,0.00
2019-03-19T02:26:31.880Z,0.00
2019-03-19T02:27:31.855Z,0.00
2019-03-19T02:28:31.865Z,0.00
2019-03-19T02:29:31.833Z,0.00
2019-03-19T02:30:31.816Z,0.00
2019-03-19T02:31:31.815Z,0.00
2019-03-19T02:32:31.787Z,0.00
2019-03-19T02:33:31.807Z,0.00
2019-03-19T02:34:31.771Z,0.00
2019-03-19T02:35:31.781Z,0.00
2019-03-19T02:36:31.755Z,0.00
2019-03-19T02:37:31.744Z,0.00
2019-03-19T02:38:31.766Z,0.00
2019-03-19T02:39:31.829Z,0.00
2019-03-19T02:40:31.715Z,0.00
2019-03-19T02:41:31.694Z,0.00
2019-03-19T02:42:31.698Z,0.00
2019-03-19T02:43:31.711Z,0.00
2019-03-19T02:44:31.675Z,0.00
2019-03-19T02:45:31.666Z,0.00
2019-03-19T02:46:31.640Z,0.00
2019-03-19T02:47:31.636Z,0.00
2019-03-19T02:48:31.625Z,0.00
2019-03-19T02:49:31.617Z,0.00
2019-03-19T02:50:31.610Z,0.00
2019-03-19T02:51:31.585Z,0.00
2019-03-19T02:52:31.574Z,0.00
2019-03-19T02:53:31.571Z,0.00
2019-03-19T02:54:31.572Z,0.00
2019-03-19T02:55:31.543Z,0.00
2019-03-19T02:56:33.462Z,0.00
2019-03-19T02:57:31.544Z,0.00
2019-03-19T02:58:31.513Z,0.00
2019-03-19T02:59:31.522Z,0.00
2019-03-19T03:00:31.501Z,0.00
2019-03-19T03:01:31.477Z,0.00
2019-03-19T03:02:31.488Z,0.00
2019-03-19T03:03:31.455Z,0.00
2019-03-19T03:04:31.462Z,0.00
2019-03-19T03:05:31.565Z,0.00
2019-03-19T03:06:31.430Z,0.00
2019-03-19T03:07:31.413Z,0.00
2019-03-19T03:08:31.429Z,0.00
2019-03-19T03:09:31.423Z,0.00
2019-03-19T03:10:31.385Z,0.00
2019-03-19T03:11:31.366Z,0.00
2019-03-19T03:12:31.372Z,0.00
2019-03-19T03:13:31.351Z,0.00
2019-03-19T03:14:31.371Z,0.00
2019-03-19T03:15:31.322Z,0.00
2019-03-19T03:16:31.308Z,0.00
2019-03-19T03:17:31.320Z,0.00
2019-03-19T03:18:31.289Z,0.00
2019-03-19T03:19:31.335Z,0.00
2019-03-19T03:20:31.280Z,0.00
2019-03-19T03:21:34.502Z,0.00
2019-03-19T03:22:31.240Z,0.00
2019-03-19T03:23:31.232Z,0.00
2019-03-19T03:24:31.244Z,0.00
2019-03-19T03:25:31.232Z,0.00
2019-03-19T03:26:31.203Z,0.00
2019-03-19T03:27:31.210Z,0.00
2019-03-19T03:28:31.188Z,0.00
2019-03-19T03:29:31.185Z,0.00
2019-03-19T03:30:31.173Z,0.00
2019-03-19T03:31:31.144Z,0.00
2019-03-19T03:32:31.135Z,0.00
2019-03-19T03:33:31.222Z,0.00
2019-03-19T03:34:31.129Z,0.00
2019-03-19T03:35:31.102Z,0.00
2019-03-19T03:36:31.102Z,0.00
2019-03-19T03:37:31.076Z,0.00
2019-03-19T03:38:31.066Z,0.00
2019-03-19T03:39:31.075Z,0.00
2019-03-19T03:40:31.046Z,0.00
2019-03-19T03:41:31.038Z,0.00
2019-03-19T03:42:31.021Z,0.00
2019-03-19T03:43:31.041Z,0.00
2019-03-19T03:44:31.050Z,0.00
2019-03-19T03:45:30.999Z,0.00
2019-03-19T03:46:30.977Z,0.00
2019-03-19T03:47:30.970Z,0.00
2019-03-19T03:48:30.961Z,0.00
2019-03-19T03:49:30.966Z,0.00
2019-03-19T03:50:30.931Z,0.00
2019-03-19T03:51:30.924Z,0.00
2019-03-19T03:52:30.912Z,0.00
2019-03-19T03:53:30.911Z,0.00
2019-03-19T03:54:30.903Z,0.00
2019-03-19T03:55:31.334Z,0.00
2019-03-19T03:56:30.864Z,0.00
2019-03-19T03:57:30.880Z,0.00
2019-03-19T03:58:30.918Z,0.00
2019-03-19T03:59:30.861Z,0.00
2019-03-19T04:00:30.828Z,0.00
2019-03-19T04:01:30.826Z,0.00
2019-03-19T04:02:30.801Z,0.00
2019-03-19T04:03:30.836Z,0.00
2019-03-19T04:04:30.802Z,0.00
2019-03-19T04:05:30.797Z,0.00
2019-03-19T04:06:30.778Z,0.00
2019-03-19T04:07:30.746Z,0.00
2019-03-19T04:08:30.733Z,0.00
2019-03-19T04:09:30.775Z,0.00
2019-03-19T04:10:30.724Z,0.00
2019-03-19T04:11:30.703Z,0.00
2019-03-19T04:12:30.693Z,0.00
2019-03-19T04:13:30.679Z,0.00
2019-03-19T04:14:30.674Z,0.00
2019-03-19T04:15:30.669Z,0.00
2019-03-19T04:16:30.645Z,0.00
2019-03-19T04:17:30.638Z,0.00
2019-03-19T04:18:30.643Z,0.00
2019-03-19T04:19:30.625Z,0.00
2019-03-19T04:20:30.626Z,0.00
2019-03-19T04:21:30.598Z,0.00
2019-03-19T04:22:30.600Z,0.00
2019-03-19T04:23:30.580Z,0.00
2019-03-19T04:24:30.560Z,0.00
2019-03-19T04:25:30.568Z,0.00
2019-03-19T04:26:30.538Z,0.00
2019-03-19T04:27:30.532Z,0.00
2019-03-19T04:28:30.524Z,0.00
2019-03-19T04:29:30.510Z,0.00
2019-03-19T04:30:30.518Z,0.00
2019-03-19T04:31:30.485Z,0.00
2019-03-19T04:32:30.476Z,0.00
2019-03-19T04:33:30.476Z,0.00
2019-03-19T04:34:30.461Z,0.00
2019-03-19T04:35:30.456Z,0.00
2019-03-19T04:36:30.438Z,0.00
2019-03-19T04:37:30.420Z,0.00
2019-03-19T04:38:30.420Z,0.00
2019-03-19T04:39:30.400Z,0.00
2019-03-19T04:40:30.428Z,0.00
2019-03-19T04:41:30.383Z,0.00
2019-03-19T04:42:30.363Z,0.00
2019-03-19T04:43:30.362Z,0.00
2019-03-19T04:44:30.361Z,0.00
2019-03-19T04:45:30.326Z,0.00
2019-03-19T04:46:30.340Z,0.00
2019-03-19T04:47:30.311Z,0.00
2019-03-19T04:48:30.301Z,0.00
2019-03-19T04:49:30.296Z,0.00
2019-03-19T04:50:30.290Z,0.00
2019-03-19T04:51:30.306Z,0.00
2019-03-19T04:52:30.267Z,0.00
2019-03-19T04:53:30.246Z,0.00
2019-03-19T04:54:30.240Z,0.00
2019-03-19T04:55:30.221Z,0.00
2019-03-19T04:56:30.223Z,0.00
2019-03-19T04:57:30.204Z,4.00
2019-03-19T04:58:30.186Z,4.00
2019-03-19T04:59:30.178Z,0.00
2019-03-19T05:00:30.159Z,0.00
2019-03-19T05:01:30.180Z,0.00
2019-03-19T05:02:30.147Z,4.00
2019-03-19T05:03:30.133Z,4.00
2019-03-19T05:04:30.223Z,4.00
2019-03-19T05:05:30.113Z,0.00
2019-03-19T05:06:30.127Z,4.00
2019-03-19T05:07:30.108Z,4.00
2019-03-19T05:08:30.078Z,4.00
2019-03-19T05:09:30.067Z,4.00
2019-03-19T05:10:30.059Z,4.00
2019-03-19T05:11:30.083Z,4.00
2019-03-19T05:12:30.033Z,8.00
2019-03-19T05:13:30.033Z,8.00
2019-03-19T05:14:30.021Z,8.00
2019-03-19T05:15:29.998Z,8.00
2019-03-19T05:16:30.001Z,8.00
2019-03-19T05:17:30.001Z,8.00
2019-03-19T05:18:31.382Z,12.00
2019-03-19T05:19:29.966Z,12.00
2019-03-19T05:20:29.948Z,16.00
2019-03-19T05:21:29.936Z,12.00
2019-03-19T05:22:29.950Z,12.00
2019-03-19T05:23:29.913Z,12.00
2019-03-19T05:24:29.907Z,12.00
2019-03-19T05:25:29.909Z,16.00
2019-03-19T05:26:29.881Z,20.00
2019-03-19T05:27:37.369Z,20.00
2019-03-19T05:28:30.877Z,24.00
2019-03-19T05:29:29.853Z,24.00
2019-03-19T05:30:29.847Z,24.00
2019-03-19T05:31:29.825Z,24.00
2019-03-19T05:32:30.818Z,24.00
2019-03-19T05:33:29.802Z,28.00
2019-03-19T05:34:29.800Z,28.00
2019-03-19T05:35:29.789Z,36.00
2019-03-19T05:36:29.773Z,32.00
2019-03-19T05:37:29.781Z,32.00
2019-03-19T05:38:29.746Z,36.00
2019-03-19T05:39:29.740Z,36.00
2019-03-19T05:40:29.744Z,36.00
2019-03-19T05:41:29.726Z,40.00
2019-03-19T05:42:29.733Z,44.00
2019-03-19T05:43:29.695Z,44.00
2019-03-19T05:44:29.683Z,48.00
2019-03-19T05:45:29.676Z,52.00
2019-03-19T05:46:29.670Z,52.00
2019-03-19T05:47:36.975Z,52.00
2019-03-19T05:48:30.709Z,44.00
2019-03-19T05:49:29.619Z,48.00
2019-03-19T05:50:29.619Z,48.00
2019-03-19T05:51:29.662Z,48.00
2019-03-19T05:52:29.627Z,48.00
2019-03-19T05:53:29.581Z,52.00
2019-03-19T05:54:29.576Z,56.00
2019-03-19T05:55:29.559Z,60.00
2019-03-19T05:56:29.548Z,64.00
2019-03-19T05:57:29.543Z,72.00
2019-03-19T05:58:29.570Z,80.00
2019-03-19T05:59:29.516Z,84.00
2019-03-19T06:00:29.507Z,104.00
2019-03-19T06:01:29.499Z,116.00
2019-03-19T06:02:29.478Z,136.00
2019-03-19T06:03:29.496Z,148.00
2019-03-19T06:04:29.466Z,160.00
2019-03-19T06:05:29.481Z,168.00
2019-03-19T06:06:29.435Z,168.00
2019-03-19T06:07:29.429Z,172.00
2019-03-19T06:08:29.445Z,184.00
2019-03-19T06:09:29.408Z,192.00
2019-03-19T06:10:29.391Z,204.00
2019-03-19T06:11:29.390Z,216.00
2019-03-19T06:12:29.370Z,228.00
2019-03-19T06:13:29.385Z,252.00
2019-03-19T06:14:29.350Z,244.00
2019-03-19T06:15:29.348Z,240.00
2019-03-19T06:16:29.327Z,268.00
2019-03-19T06:17:29.314Z,256.00
2019-03-19T06:18:35.002Z,220.00
2019-03-19T06:19:30.310Z,208.00
2019-03-19T06:20:29.290Z,212.00
2019-03-19T06:21:29.274Z,200.00
2019-03-19T06:22:29.256Z,212.00
2019-03-19T06:23:29.309Z,220.00
2019-03-19T06:24:29.238Z,240.00
2019-03-19T06:25:29.241Z,252.00
2019-03-19T06:26:29.227Z,260.00
2019-03-19T06:27:29.208Z,272.00
2019-03-19T06:28:29.228Z,300.00
2019-03-19T06:29:29.181Z,336.00
2019-03-19T06:30:29.193Z,308.00
2019-03-19T06:31:29.171Z,324.00
2019-03-19T06:32:29.152Z,376.00
2019-03-19T06:33:29.180Z,400.00
2019-03-19T06:34:29.129Z,388.00
2019-03-19T06:35:29.115Z,400.00
2019-03-19T06:36:29.110Z,408.00
2019-03-19T06:37:29.114Z,488.00
2019-03-19T06:38:29.094Z,552.00
2019-03-19T06:39:29.104Z,560.00
2019-03-19T06:40:29.064Z,460.00
2019-03-19T06:41:29.126Z,436.00
2019-03-19T06:42:29.030Z,472.00
2019-03-19T06:43:29.026Z,472.00
2019-03-19T06:44:29.050Z,468.00
2019-03-19T06:45:29.002Z,456.00
2019-03-19T06:46:28.996Z,424.00
2019-03-19T06:47:28.979Z,424.00
2019-03-19T06:48:28.975Z,420.00
2019-03-19T06:49:29.026Z,416.00
2019-03-19T06:50:28.974Z,444.00
2019-03-19T06:51:28.938Z,464.00
2019-03-19T06:52:28.922Z,472.00
2019-03-19T06:53:28.914Z,464.00
2019-03-19T06:54:28.982Z,440.00
2019-03-19T06:55:28.930Z,452.00
2019-03-19T06:56:28.914Z,456.00
2019-03-19T06:57:38.882Z,452.00
2019-03-19T06:58:29.903Z,500.00
2019-03-19T06:59:28.892Z,468.00
2019-03-19T07:00:28.852Z,400.00
2019-03-19T07:01:28.905Z,360.00
2019-03-19T07:02:28.888Z,340.00
2019-03-19T07:03:28.808Z,448.00
2019-03-19T07:04:28.829Z,404.00
2019-03-19T07:05:28.812Z,344.00
2019-03-19T07:06:28.816Z,404.00
2019-03-19T07:07:28.785Z,632.00
2019-03-19T07:08:28.753Z,300.00
2019-03-19T07:09:28.778Z,312.00
2019-03-19T07:10:28.732Z,468.00
2019-03-19T07:11:28.746Z,684.00
2019-03-19T07:12:28.722Z,516.00
2019-03-19T07:13:28.700Z,532.00
2019-03-19T07:14:28.717Z,648.00
2019-03-19T07:15:28.703Z,592.00
2019-03-19T07:16:28.686Z,720.00
2019-03-19T07:17:28.689Z,384.00
2019-03-19T07:18:28.671Z,356.00
2019-03-19T07:19:28.714Z,796.00
2019-03-19T07:20:28.623Z,648.00
2019-03-19T07:21:28.614Z,732.00
2019-03-19T07:22:28.625Z,420.00
2019-03-19T07:23:28.671Z,400.00
2019-03-19T07:24:28.601Z,436.00
2019-03-19T07:25:28.603Z,996.00
2019-03-19T07:26:28.552Z,468.00
2019-03-19T07:27:28.570Z,504.00
2019-03-19T07:28:28.581Z,588.00
2019-03-19T07:29:28.662Z,576.00
2019-03-19T07:30:28.534Z,848.00
2019-03-19T07:31:31.232Z,504.00
2019-03-19T07:32:28.495Z,684.00
2019-03-19T07:33:28.521Z,776.00
2019-03-19T07:34:28.471Z,448.00
2019-03-19T07:35:28.476Z,468.00
2019-03-19T07:36:28.449Z,512.00
2019-03-19T07:37:28.447Z,456.00
2019-03-19T07:38:28.422Z,628.00
2019-03-19T07:39:28.411Z,508.00
2019-03-19T07:40:28.441Z,396.00
2019-03-19T07:41:28.395Z,460.00
2019-03-19T07:42:28.382Z,544.00
2019-03-19T07:43:28.374Z,448.00
2019-03-19T07:44:28.361Z,460.00
2019-03-19T07:45:28.377Z,460.00
2019-03-19T07:46:28.346Z,456.00
2019-03-19T07:47:28.341Z,456.00
2019-03-19T07:48:28.314Z,484.00
2019-03-19T07:49:28.304Z,508.00
2019-03-19T07:50:28.311Z,760.00
2019-03-19T07:51:28.297Z,924.00
2019-03-19T07:52:28.337Z,1140.00
2019-03-19T07:53:28.259Z,1128.00
2019-03-19T07:54:28.249Z,1192.00
2019-03-19T07:55:28.274Z,1080.00
2019-03-19T07:56:28.263Z,1396.00
2019-03-19T07:57:29.590Z,1168.00
2019-03-19T07:58:40.590Z,916.00
2019-03-19T07:59:29.195Z,1052.00
2019-03-19T08:00:28.203Z,956.00
2019-03-19T08:01:28.195Z,808.00
2019-03-19T08:02:28.160Z,944.00
2019-03-19T08:03:28.257Z,1220.00
2019-03-19T08:04:28.197Z,988.00
2019-03-19T08:05:33.061Z,900.00
2019-03-19T08:06:29.113Z,1456.00
2019-03-19T08:07:28.111Z,1748.00
2019-03-19T08:08:28.099Z,1704.00
2019-03-19T08:09:28.132Z,1912.00
2019-03-19T08:10:28.096Z,1488.00
2019-03-19T08:11:28.244Z,1232.00
2019-03-19T08:12:28.117Z,1576.00
2019-03-19T08:13:28.225Z,1052.00
2019-03-19T08:14:28.072Z,1068.00
2019-03-19T08:15:28.050Z,988.00
2019-03-19T08:16:28.177Z,992.00
2019-03-19T08:17:27.998Z,948.00
2019-03-19T08:18:27.983Z,1128.00
2019-03-19T08:19:27.974Z,1384.00
2019-03-19T08:20:27.987Z,1504.00
2019-03-19T08:21:27.962Z,1624.00
2019-03-19T08:22:27.940Z,1164.00
2019-03-19T08:23:27.927Z,1796.00
2019-03-19T08:24:27.922Z,1632.00
2019-03-19T08:25:27.930Z,1316.00
2019-03-19T08:26:27.913Z,1480.00
2019-03-19T08:27:27.895Z,1412.00
2019-03-19T08:28:27.873Z,1504.00
2019-03-19T08:29:27.875Z,964.00
2019-03-19T08:30:27.849Z,1256.00
2019-03-19T08:31:27.846Z,1180.00
2019-03-19T08:32:27.845Z,1944.00
2019-03-19T08:33:27.865Z,1552.00
2019-03-19T08:34:27.806Z,1412.00
2019-03-19T08:35:27.792Z,1800.00
2019-03-19T08:36:27.816Z,1856.00
2019-03-19T08:37:27.790Z,1576.00
2019-03-19T08:38:27.766Z,2100.00
2019-03-19T08:39:27.748Z,972.00
2019-03-19T08:40:27.734Z,1060.00
2019-03-19T08:41:27.804Z,1492.00
2019-03-19T08:42:27.716Z,1036.00
2019-03-19T08:43:27.720Z,1592.00
2019-03-19T08:44:28.171Z,1620.00
2019-03-19T08:45:27.690Z,2172.00
2019-03-19T08:46:27.707Z,1232.00
2019-03-19T08:47:27.657Z,720.00
2019-03-19T08:48:27.657Z,724.00
2019-03-19T08:49:27.691Z,1136.00
2019-03-19T08:50:27.618Z,792.00
2019-03-19T08:51:27.631Z,916.00
2019-03-19T08:52:27.671Z,756.00
2019-03-19T08:53:27.594Z,996.00
2019-03-19T08:54:27.582Z,1972.00
2019-03-19T08:55:27.573Z,2476.00
2019-03-19T08:56:27.566Z,1960.00
2019-03-19T08:57:27.551Z,1560.00
2019-03-19T08:58:27.531Z,1968.00
2019-03-19T08:59:27.529Z,2164.00
2019-03-19T09:00:28.319Z,1812.00
2019-03-19T09:01:27.514Z,1800.00
2019-03-19T09:02:27.488Z,1968.00
2019-03-19T09:03:27.478Z,1524.00
2019-03-19T09:04:27.476Z,2888.00
2019-03-19T09:05:27.462Z,2112.00
2019-03-19T09:06:27.474Z,1748.00
2019-03-19T09:07:27.428Z,1236.00
2019-03-19T09:08:27.426Z,1464.00
2019-03-19T09:09:27.407Z,1996.00
2019-03-19T09:10:27.410Z,2528.00
2019-03-19T09:11:27.398Z,1536.00
2019-03-19T09:12:27.384Z,1020.00
2019-03-19T09:13:27.366Z,1192.00
2019-03-19T09:14:27.349Z,1720.00
2019-03-19T09:15:27.335Z,1812.00
2019-03-19T09:16:27.335Z,1804.00
2019-03-19T09:17:27.339Z,2552.00
2019-03-19T09:18:27.304Z,1760.00
2019-03-19T09:19:27.300Z,2028.00
2019-03-19T09:20:27.282Z,1584.00
2019-03-19T09:21:27.281Z,1540.00
2019-03-19T09:22:29.906Z,2204.00
2019-03-19T09:23:27.249Z,2224.00
2019-03-19T09:24:27.238Z,2988.00
2019-03-19T09:25:27.252Z,2752.00
2019-03-19T09:26:27.215Z,1516.00
2019-03-19T09:27:27.220Z,1016.00
2019-03-19T09:28:27.194Z,1664.00
2019-03-19T09:29:27.175Z,2808.00
2019-03-19T09:30:27.167Z,1328.00
2019-03-19T09:31:27.158Z,892.00
2019-03-19T09:32:27.187Z,976.00
2019-03-19T09:33:27.145Z,836.00
2019-03-19T09:34:27.126Z,812.00
2019-03-19T09:35:27.157Z,756.00
2019-03-19T09:36:27.114Z,848.00
2019-03-19T09:37:27.091Z,1232.00
2019-03-19T09:38:27.099Z,1008.00
2019-03-19T09:39:27.085Z,692.00
2019-03-19T09:40:27.058Z,644.00
2019-03-19T09:41:27.047Z,832.00
2019-03-19T09:42:27.036Z,836.00
2019-03-19T09:43:27.053Z,940.00
2019-03-19T09:44:27.022Z,1292.00
2019-03-19T09:45:27.049Z,1452.00
2019-03-19T09:46:27.001Z,1560.00
2019-03-19T09:47:26.975Z,1304.00
2019-03-19T09:48:28.315Z,1348.00
2019-03-19T09:49:26.958Z,1564.00
2019-03-19T09:50:26.952Z,2880.00
2019-03-19T09:51:26.941Z,2732.00
2019-03-19T09:52:26.931Z,2296.00
2019-03-19T09:53:26.933Z,2304.00
2019-03-19T09:54:26.895Z,2412.00
2019-03-19T09:55:26.890Z,2888.00
2019-03-19T09:56:26.882Z,3768.00
2019-03-19T09:57:26.867Z,5000.00
2019-03-19T09:58:26.907Z,3204.00
2019-03-19T09:59:27.490Z,1568.00
2019-03-19T10:00:26.833Z,1544.00
2019-03-19T10:01:26.836Z,2340.00
2019-03-19T10:02:26.841Z,4408.00
2019-03-19T10:03:26.824Z,5036.00
2019-03-19T10:04:26.861Z,3908.00
2019-03-19T10:05:26.772Z,1516.00
2019-03-19T10:06:26.776Z,1536.00
2019-03-19T10:07:26.765Z,1632.00
2019-03-19T10:08:26.756Z,1616.00
2019-03-19T10:09:26.727Z,1828.00
2019-03-19T10:10:26.769Z,2436.00
2019-03-19T10:11:26.731Z,2368.00
2019-03-19T10:12:26.711Z,3252.00
2019-03-19T10:13:26.750Z,2640.00
2019-03-19T10:14:26.684Z,2344.00
2019-03-19T10:15:26.675Z,1740.00
2019-03-19T10:16:26.678Z,2588.00
2019-03-19T10:17:26.638Z,2496.00
2019-03-19T10:18:26.643Z,1332.00
2019-03-19T10:19:26.652Z,920.00
2019-03-19T10:20:26.606Z,908.00
2019-03-19T10:21:26.591Z,964.00
2019-03-19T10:22:26.592Z,880.00
2019-03-19T10:23:26.575Z,4024.00
2019-03-19T10:24:26.593Z,1380.00
2019-03-19T10:25:26.554Z,1716.00
2019-03-19T10:26:26.540Z,2876.00
2019-03-19T10:27:26.528Z,9420.00
2019-03-19T10:28:26.517Z,4092.00
2019-03-19T10:29:26.531Z,8132.00
2019-03-19T10:30:26.500Z,84128.00
2019-03-19T10:31:26.491Z,86976.00
2019-03-19T10:32:26.474Z,88896.00
2019-03-19T10:33:26.471Z,31488.00
2019-03-19T10:34:26.517Z,40640.00
2019-03-19T10:35:26.443Z,4320.00
2019-03-19T10:36:26.430Z,46272.00
2019-03-19T10:37:26.423Z,35872.00
2019-03-19T10:38:26.437Z,83776.00
2019-03-19T10:39:26.415Z,41600.00
2019-03-19T10:40:26.388Z,4088.00
2019-03-19T10:41:26.373Z,83072.00
2019-03-19T10:42:26.358Z,7284.00
2019-03-19T10:43:26.353Z,7828.00
2019-03-19T10:44:26.384Z,85152.00
2019-03-19T10:45:26.352Z,40448.00
2019-03-19T10:46:26.363Z,13636.00
2019-03-19T10:47:26.305Z,13112.00
2019-03-19T10:48:26.296Z,2928.00
2019-03-19T10:49:26.290Z,84768.00
2019-03-19T10:50:26.295Z,56064.00
2019-03-19T10:51:26.264Z,72448.00
2019-03-19T10:52:26.273Z,68448.00
2019-03-19T10:53:26.238Z,66144.00
2019-03-19T10:54:26.233Z,69504.00
2019-03-19T10:55:26.309Z,47488.00
2019-03-19T10:56:26.220Z,4240.00
2019-03-19T10:57:26.206Z,4448.00
2019-03-19T10:58:26.184Z,3748.00
2019-03-19T10:59:26.273Z,2888.00
2019-03-19T11:00:26.228Z,4112.00
2019-03-19T11:01:26.155Z,3560.00
2019-03-19T11:02:26.142Z,4736.00
2019-03-19T11:03:26.153Z,5488.00
2019-03-19T11:04:26.125Z,4024.00
2019-03-19T11:05:26.142Z,89696.00
2019-03-19T11:06:26.139Z,88512.00
2019-03-19T11:07:26.109Z,11388.00
2019-03-19T11:08:26.083Z,8836.00
2019-03-19T11:09:26.083Z,8200.00
2019-03-19T11:10:26.098Z,27712.00
2019-03-19T11:11:26.131Z,77472.00
2019-03-19T11:12:26.025Z,81056.00
2019-03-19T11:13:26.052Z,82880.00
2019-03-19T11:14:26.017Z,83136.00
2019-03-19T11:15:26.034Z,83488.00
2019-03-19T11:16:25.982Z,35872.00
2019-03-19T11:17:28.364Z,11676.00
2019-03-19T11:18:25.987Z,6304.00
2019-03-19T11:19:25.952Z,13148.00
2019-03-19T11:20:25.972Z,6220.00
2019-03-19T11:21:25.939Z,2440.00
2019-03-19T11:22:25.938Z,2620.00
2019-03-19T11:23:25.906Z,7184.00
2019-03-19T11:24:25.904Z,20736.00
2019-03-19T11:25:25.886Z,80832.00
2019-03-19T11:26:25.952Z,79648.00
2019-03-19T11:27:25.872Z,81472.00
2019-03-19T11:28:25.849Z,81312.00
2019-03-19T11:29:25.864Z,79232.00
2019-03-19T11:30:25.853Z,76512.00
2019-03-19T11:31:25.844Z,72800.00
2019-03-19T11:32:25.811Z,56192.00
2019-03-19T11:33:25.833Z,9480.00
2019-03-19T11:34:25.788Z,81024.00
2019-03-19T11:35:25.779Z,74208.00
2019-03-19T11:36:25.786Z,74016.00
2019-03-19T11:37:25.763Z,74656.00
2019-03-19T11:38:25.766Z,77760.00
2019-03-19T11:39:25.737Z,80960.00
2019-03-19T11:40:26.317Z,81440.00
2019-03-19T11:41:25.755Z,81728.00
2019-03-19T11:42:25.727Z,12304.00
2019-03-19T11:43:25.700Z,88896.00
2019-03-19T11:44:25.687Z,89120.00
2019-03-19T11:45:25.676Z,24384.00
2019-03-19T11:46:25.695Z,9196.00
2019-03-19T11:47:25.666Z,46368.00
2019-03-19T11:48:25.650Z,7220.00
2019-03-19T11:49:25.641Z,7128.00
2019-03-19T11:50:25.619Z,3888.00
2019-03-19T11:51:25.604Z,2312.00
2019-03-19T11:52:25.643Z,3472.00
2019-03-19T11:53:25.588Z,3064.00
2019-03-19T11:54:25.577Z,2320.00
2019-03-19T11:55:25.559Z,2972.00
2019-03-19T11:56:25.552Z,4756.00
2019-03-19T11:57:25.559Z,82624.00
2019-03-19T11:58:25.544Z,78880.00
2019-03-19T11:59:25.515Z,35264.00
2019-03-19T12:00:25.508Z,23328.00
2019-03-19T12:01:25.502Z,29312.00
2019-03-19T12:02:26.402Z,62432.00
2019-03-19T12:03:25.473Z,8136.00
2019-03-19T12:04:25.461Z,6140.00
2019-03-19T12:05:25.448Z,12480.00
2019-03-19T12:06:25.478Z,73888.00
2019-03-19T12:07:25.451Z,74048.00
2019-03-19T12:08:25.424Z,42272.00
2019-03-19T12:09:25.429Z,18144.00
2019-03-19T12:10:25.396Z,17920.00
2019-03-19T12:11:25.391Z,15904.00
2019-03-19T12:12:25.395Z,15232.00
2019-03-19T12:13:25.365Z,15648.00
2019-03-19T12:14:25.386Z,15872.00
2019-03-19T12:15:25.349Z,10484.00
2019-03-19T12:16:25.379Z,6200.00
2019-03-19T12:17:25.336Z,7840.00
2019-03-19T12:18:25.309Z,3812.00
2019-03-19T12:19:25.295Z,3236.00
2019-03-19T12:20:25.286Z,2712.00
2019-03-19T12:21:25.298Z,2084.00
2019-03-19T12:22:25.289Z,1776.00
2019-03-19T12:23:25.261Z,1384.00
2019-03-19T12:24:25.247Z,1076.00
2019-03-19T12:25:25.242Z,892.00
2019-03-19T12:26:25.224Z,784.00
2019-03-19T12:27:25.236Z,748.00
2019-03-19T12:28:25.203Z,844.00
2019-03-19T12:29:25.197Z,964.00
2019-03-19T12:30:26.545Z,1064.00
2019-03-19T12:31:25.172Z,968.00
2019-03-19T12:32:25.199Z,924.00
2019-03-19T12:33:25.145Z,896.00
2019-03-19T12:34:25.139Z,896.00
2019-03-19T12:35:25.119Z,924.00
2019-03-19T12:36:25.111Z,840.00
2019-03-19T12:37:25.116Z,856.00
2019-03-19T12:38:25.105Z,860.00
2019-03-19T12:39:25.096Z,820.00